sensor_id;sensor_type;location;lat;lon;timestamp;P1;durP1;ratioP1;P2;durP2;ratioP2
15645;SDS011;7922;43.622;1.476;2022-07-18T00:00:58;4.00;;;3.70;;
15645;SDS011;7922;43.622;1.476;2022-07-18T00:03:24;4.63;;;3.67;;
15645;SDS011;7922;43.622;1.476;2022-07-18T00:05:50;4.87;;;3.63;;
15645;SDS011;7922;43.622;1.476;2022-07-18T00:08:15;4.97;;;3.70;;
15645;SDS011;7922;43.622;1.476;2022-07-18T00:10:41;4.47;;;3.63;;
15645;SDS011;7922;43.622;1.476;2022-07-18T00:13:07;4.87;;;3.20;;
15645;SDS011;7922;43.622;1.476;2022-07-18T00:15:33;3.90;;;3.60;;
15645;SDS011;7922;43.622;1.476;2022-07-18T00:17:58;4.07;;;3.67;;
15645;SDS011;7922;43.622;1.476;2022-07-18T00:20:24;3.37;;;3.10;;
15645;SDS011;7922;43.622;1.476;2022-07-18T00:22:50;4.50;;;3.23;;
15645;SDS011;7922;43.622;1.476;2022-07-18T00:25:16;4.17;;;3.77;;
15645;SDS011;7922;43.622;1.476;2022-07-18T00:27:41;3.80;;;3.50;;
15645;SDS011;7922;43.622;1.476;2022-07-18T00:30:07;3.80;;;3.50;;
15645;SDS011;7922;43.622;1.476;2022-07-18T00:32:33;3.80;;;3.50;;
15645;SDS011;7922;43.622;1.476;2022-07-18T00:34:59;4.20;;;3.90;;
15645;SDS011;7922;43.622;1.476;2022-07-18T00:37:25;3.70;;;3.40;;
15645;SDS011;7922;43.622;1.476;2022-07-18T00:39:50;4.03;;;3.67;;
15645;SDS011;7922;43.622;1.476;2022-07-18T00:42:16;3.83;;;3.53;;
15645;SDS011;7922;43.622;1.476;2022-07-18T00:44:42;4.27;;;3.87;;
15645;SDS011;7922;43.622;1.476;2022-07-18T00:47:08;4.80;;;3.60;;
15645;SDS011;7922;43.622;1.476;2022-07-18T00:49:33;5.57;;;3.50;;
15645;SDS011;7922;43.622;1.476;2022-07-18T00:51:59;4.00;;;3.50;;
15645;SDS011;7922;43.622;1.476;2022-07-18T00:54:25;5.73;;;3.60;;
15645;SDS011;7922;43.622;1.476;2022-07-18T00:56:51;5.23;;;3.97;;
15645;SDS011;7922;43.622;1.476;2022-07-18T00:59:17;5.07;;;3.50;;
15645;SDS011;7922;43.622;1.476;2022-07-18T01:01:43;6.10;;;3.70;;
15645;SDS011;7922;43.622;1.476;2022-07-18T01:04:21;3.63;;;3.33;;
15645;SDS011;7922;43.622;1.476;2022-07-18T01:06:49;4.63;;;3.50;;
15645;SDS011;7922;43.622;1.476;2022-07-18T01:09:16;3.80;;;3.50;;
15645;SDS011;7922;43.622;1.476;2022-07-18T01:11:44;4.43;;;4.03;;
15645;SDS011;7922;43.622;1.476;2022-07-18T01:14:10;4.47;;;3.70;;
15645;SDS011;7922;43.622;1.476;2022-07-18T01:16:36;8.90;;;4.10;;
15645;SDS011;7922;43.622;1.476;2022-07-18T01:19:02;6.13;;;3.70;;
15645;SDS011;7922;43.622;1.476;2022-07-18T01:21:29;4.50;;;3.70;;
15645;SDS011;7922;43.622;1.476;2022-07-18T01:23:55;4.13;;;3.77;;
15645;SDS011;7922;43.622;1.476;2022-07-18T01:26:20;4.00;;;3.70;;
15645;SDS011;7922;43.622;1.476;2022-07-18T01:28:47;4.23;;;3.93;;
15645;SDS011;7922;43.622;1.476;2022-07-18T01:31:13;4.30;;;3.90;;
15645;SDS011;7922;43.622;1.476;2022-07-18T01:33:39;5.20;;;3.80;;
15645;SDS011;7922;43.622;1.476;2022-07-18T01:36:05;4.67;;;4.27;;
15645;SDS011;7922;43.622;1.476;2022-07-18T01:38:32;4.43;;;4.03;;
15645;SDS011;7922;43.622;1.476;2022-07-18T01:40:59;5.17;;;4.27;;
15645;SDS011;7922;43.622;1.476;2022-07-18T01:43:25;4.53;;;4.07;;
15645;SDS011;7922;43.622;1.476;2022-07-18T01:45:52;5.60;;;4.03;;
15645;SDS011;7922;43.622;1.476;2022-07-18T01:48:19;8.20;;;4.40;;
15645;SDS011;7922;43.622;1.476;2022-07-18T01:50:48;4.07;;;3.77;;
15645;SDS011;7922;43.622;1.476;2022-07-18T01:53:14;6.50;;;3.90;;
15645;SDS011;7922;43.622;1.476;2022-07-18T01:55:39;4.50;;;4.17;;
15645;SDS011;7922;43.622;1.476;2022-07-18T01:58:05;4.20;;;3.80;;
15645;SDS011;7922;43.622;1.476;2022-07-18T02:00:31;4.47;;;4.07;;
15645;SDS011;7922;43.622;1.476;2022-07-18T02:02:56;4.30;;;3.87;;
15645;SDS011;7922;43.622;1.476;2022-07-18T02:05:22;4.97;;;3.83;;
15645;SDS011;7922;43.622;1.476;2022-07-18T02:07:48;4.63;;;4.13;;
15645;SDS011;7922;43.622;1.476;2022-07-18T02:10:18;4.60;;;4.20;;
15645;SDS011;7922;43.622;1.476;2022-07-18T02:12:45;4.67;;;4.27;;
15645;SDS011;7922;43.622;1.476;2022-07-18T02:15:12;5.10;;;4.60;;
15645;SDS011;7922;43.622;1.476;2022-07-18T02:17:39;4.40;;;4.00;;
15645;SDS011;7922;43.622;1.476;2022-07-18T02:20:07;4.70;;;4.40;;
15645;SDS011;7922;43.622;1.476;2022-07-18T02:22:34;6.10;;;4.30;;
15645;SDS011;7922;43.622;1.476;2022-07-18T02:25:00;7.07;;;4.80;;
15645;SDS011;7922;43.622;1.476;2022-07-18T02:27:26;5.10;;;4.60;;
15645;SDS011;7922;43.622;1.476;2022-07-18T02:29:52;4.77;;;4.03;;
15645;SDS011;7922;43.622;1.476;2022-07-18T02:32:18;4.97;;;4.33;;
15645;SDS011;7922;43.622;1.476;2022-07-18T02:34:43;5.00;;;4.50;;
15645;SDS011;7922;43.622;1.476;2022-07-18T02:37:09;4.90;;;4.50;;
15645;SDS011;7922;43.622;1.476;2022-07-18T02:39:36;5.30;;;4.80;;
15645;SDS011;7922;43.622;1.476;2022-07-18T02:42:04;6.07;;;4.37;;
15645;SDS011;7922;43.622;1.476;2022-07-18T02:44:30;5.30;;;4.80;;
15645;SDS011;7922;43.622;1.476;2022-07-18T02:46:56;4.77;;;4.40;;
15645;SDS011;7922;43.622;1.476;2022-07-18T02:49:23;5.60;;;4.50;;
15645;SDS011;7922;43.622;1.476;2022-07-18T02:51:55;4.93;;;4.53;;
15645;SDS011;7922;43.622;1.476;2022-07-18T02:54:22;5.47;;;4.43;;
15645;SDS011;7922;43.622;1.476;2022-07-18T02:56:49;4.43;;;4.10;;
15645;SDS011;7922;43.622;1.476;2022-07-18T02:59:15;4.90;;;4.50;;
15645;SDS011;7922;43.622;1.476;2022-07-18T03:01:41;4.93;;;4.47;;
15645;SDS011;7922;43.622;1.476;2022-07-18T03:04:06;5.40;;;4.37;;
15645;SDS011;7922;43.622;1.476;2022-07-18T03:06:32;4.63;;;4.23;;
15645;SDS011;7922;43.622;1.476;2022-07-18T03:08:58;5.03;;;4.53;;
15645;SDS011;7922;43.622;1.476;2022-07-18T03:11:23;5.10;;;4.70;;
15645;SDS011;7922;43.622;1.476;2022-07-18T03:13:49;5.00;;;4.60;;
15645;SDS011;7922;43.622;1.476;2022-07-18T03:16:15;5.30;;;4.80;;
15645;SDS011;7922;43.622;1.476;2022-07-18T03:18:40;5.23;;;4.40;;
15645;SDS011;7922;43.622;1.476;2022-07-18T03:21:06;4.80;;;4.40;;
15645;SDS011;7922;43.622;1.476;2022-07-18T03:23:31;5.00;;;4.60;;
15645;SDS011;7922;43.622;1.476;2022-07-18T03:25:57;5.33;;;4.83;;
15645;SDS011;7922;43.622;1.476;2022-07-18T03:28:23;5.50;;;5.00;;
15645;SDS011;7922;43.622;1.476;2022-07-18T03:30:48;5.17;;;4.67;;
15645;SDS011;7922;43.622;1.476;2022-07-18T03:33:14;6.63;;;4.73;;
15645;SDS011;7922;43.622;1.476;2022-07-18T03:35:40;4.80;;;4.40;;
15645;SDS011;7922;43.622;1.476;2022-07-18T03:38:05;5.33;;;4.63;;
15645;SDS011;7922;43.622;1.476;2022-07-18T03:40:31;4.57;;;4.20;;
15645;SDS011;7922;43.622;1.476;2022-07-18T03:42:57;5.33;;;4.93;;
15645;SDS011;7922;43.622;1.476;2022-07-18T03:45:23;4.50;;;4.20;;
15645;SDS011;7922;43.622;1.476;2022-07-18T03:47:49;5.17;;;4.67;;
15645;SDS011;7922;43.622;1.476;2022-07-18T03:50:14;5.20;;;4.80;;
15645;SDS011;7922;43.622;1.476;2022-07-18T03:52:40;5.43;;;4.90;;
15645;SDS011;7922;43.622;1.476;2022-07-18T03:55:06;5.70;;;5.17;;
15645;SDS011;7922;43.622;1.476;2022-07-18T03:57:32;4.67;;;4.27;;
15645;SDS011;7922;43.622;1.476;2022-07-18T03:59:58;5.00;;;4.60;;
15645;SDS011;7922;43.622;1.476;2022-07-18T04:02:24;4.93;;;4.57;;
15645;SDS011;7922;43.622;1.476;2022-07-18T04:04:49;5.90;;;4.67;;
15645;SDS011;7922;43.622;1.476;2022-07-18T04:07:15;5.37;;;4.63;;
15645;SDS011;7922;43.622;1.476;2022-07-18T04:09:41;4.90;;;4.53;;
15645;SDS011;7922;43.622;1.476;2022-07-18T04:12:06;5.30;;;4.80;;
15645;SDS011;7922;43.622;1.476;2022-07-18T04:14:32;5.73;;;5.10;;
15645;SDS011;7922;43.622;1.476;2022-07-18T04:16:58;5.33;;;4.83;;
15645;SDS011;7922;43.622;1.476;2022-07-18T04:19:23;5.30;;;4.80;;
15645;SDS011;7922;43.622;1.476;2022-07-18T04:21:50;4.67;;;4.20;;
15645;SDS011;7922;43.622;1.476;2022-07-18T04:24:15;5.03;;;4.60;;
15645;SDS011;7922;43.622;1.476;2022-07-18T04:26:41;5.07;;;4.60;;
15645;SDS011;7922;43.622;1.476;2022-07-18T04:29:07;5.13;;;4.67;;
15645;SDS011;7922;43.622;1.476;2022-07-18T04:31:33;5.10;;;4.70;;
15645;SDS011;7922;43.622;1.476;2022-07-18T04:33:59;5.00;;;4.50;;
15645;SDS011;7922;43.622;1.476;2022-07-18T04:36:24;5.20;;;4.73;;
15645;SDS011;7922;43.622;1.476;2022-07-18T04:38:50;4.97;;;4.40;;
15645;SDS011;7922;43.622;1.476;2022-07-18T04:41:16;5.67;;;4.57;;
15645;SDS011;7922;43.622;1.476;2022-07-18T04:43:44;5.30;;;4.87;;
15645;SDS011;7922;43.622;1.476;2022-07-18T04:46:10;5.30;;;4.80;;
15645;SDS011;7922;43.622;1.476;2022-07-18T04:48:36;5.00;;;4.70;;
15645;SDS011;7922;43.622;1.476;2022-07-18T04:51:03;7.57;;;5.10;;
15645;SDS011;7922;43.622;1.476;2022-07-18T04:53:29;5.00;;;4.60;;
15645;SDS011;7922;43.622;1.476;2022-07-18T04:55:55;6.63;;;4.67;;
15645;SDS011;7922;43.622;1.476;2022-07-18T04:58:20;7.50;;;4.60;;
15645;SDS011;7922;43.622;1.476;2022-07-18T05:00:46;6.10;;;4.83;;
15645;SDS011;7922;43.622;1.476;2022-07-18T05:03:13;5.77;;;4.83;;
15645;SDS011;7922;43.622;1.476;2022-07-18T05:05:38;7.03;;;4.70;;
15645;SDS011;7922;43.622;1.476;2022-07-18T05:08:04;6.57;;;4.70;;
15645;SDS011;7922;43.622;1.476;2022-07-18T05:10:30;8.20;;;4.87;;
15645;SDS011;7922;43.622;1.476;2022-07-18T05:12:57;8.47;;;4.80;;
15645;SDS011;7922;43.622;1.476;2022-07-18T05:15:23;11.03;;;4.60;;
15645;SDS011;7922;43.622;1.476;2022-07-18T05:17:50;6.67;;;4.60;;
15645;SDS011;7922;43.622;1.476;2022-07-18T05:20:17;10.60;;;4.53;;
15645;SDS011;7922;43.622;1.476;2022-07-18T05:22:44;8.73;;;4.20;;
15645;SDS011;7922;43.622;1.476;2022-07-18T05:25:11;12.20;;;4.57;;
15645;SDS011;7922;43.622;1.476;2022-07-18T05:27:37;7.40;;;4.43;;
15645;SDS011;7922;43.622;1.476;2022-07-18T05:30:04;9.97;;;5.53;;
15645;SDS011;7922;43.622;1.476;2022-07-18T05:32:31;9.47;;;5.30;;
15645;SDS011;7922;43.622;1.476;2022-07-18T05:34:56;8.63;;;5.20;;
15645;SDS011;7922;43.622;1.476;2022-07-18T05:37:22;13.27;;;4.60;;
15645;SDS011;7922;43.622;1.476;2022-07-18T05:39:48;12.07;;;5.37;;
15645;SDS011;7922;43.622;1.476;2022-07-18T05:42:16;8.50;;;5.20;;
15645;SDS011;7922;43.622;1.476;2022-07-18T05:44:42;8.60;;;4.53;;
15645;SDS011;7922;43.622;1.476;2022-07-18T05:47:08;7.73;;;5.10;;
15645;SDS011;7922;43.622;1.476;2022-07-18T05:49:34;5.30;;;4.50;;
15645;SDS011;7922;43.622;1.476;2022-07-18T05:52:00;6.07;;;4.63;;
15645;SDS011;7922;43.622;1.476;2022-07-18T05:54:26;6.00;;;5.20;;
15645;SDS011;7922;43.622;1.476;2022-07-18T05:56:52;8.43;;;4.30;;
15645;SDS011;7922;43.622;1.476;2022-07-18T05:59:18;13.93;;;5.47;;
15645;SDS011;7922;43.622;1.476;2022-07-18T06:01:44;16.10;;;5.30;;
15645;SDS011;7922;43.622;1.476;2022-07-18T06:04:10;11.10;;;4.87;;
15645;SDS011;7922;43.622;1.476;2022-07-18T06:06:36;15.70;;;4.70;;
15645;SDS011;7922;43.622;1.476;2022-07-18T06:09:03;10.50;;;5.20;;
15645;SDS011;7922;43.622;1.476;2022-07-18T06:11:29;20.17;;;5.53;;
15645;SDS011;7922;43.622;1.476;2022-07-18T06:13:55;9.47;;;5.10;;
15645;SDS011;7922;43.622;1.476;2022-07-18T06:16:21;20.07;;;5.30;;
15645;SDS011;7922;43.622;1.476;2022-07-18T06:18:47;15.10;;;4.97;;
15645;SDS011;7922;43.622;1.476;2022-07-18T06:21:12;9.90;;;5.00;;
15645;SDS011;7922;43.622;1.476;2022-07-18T06:23:38;12.57;;;5.30;;
15645;SDS011;7922;43.622;1.476;2022-07-18T06:26:04;10.83;;;4.70;;
15645;SDS011;7922;43.622;1.476;2022-07-18T06:28:30;8.83;;;4.80;;
15645;SDS011;7922;43.622;1.476;2022-07-18T06:30:56;5.77;;;4.40;;
15645;SDS011;7922;43.622;1.476;2022-07-18T06:33:22;5.17;;;4.37;;
15645;SDS011;7922;43.622;1.476;2022-07-18T06:35:47;5.97;;;4.20;;
15645;SDS011;7922;43.622;1.476;2022-07-18T06:38:14;4.77;;;3.90;;
15645;SDS011;7922;43.622;1.476;2022-07-18T06:40:40;4.43;;;3.77;;
15645;SDS011;7922;43.622;1.476;2022-07-18T06:43:06;3.80;;;3.50;;
15645;SDS011;7922;43.622;1.476;2022-07-18T06:45:32;5.70;;;3.83;;
15645;SDS011;7922;43.622;1.476;2022-07-18T06:47:58;5.47;;;3.77;;
15645;SDS011;7922;43.622;1.476;2022-07-18T06:50:23;13.27;;;4.50;;
15645;SDS011;7922;43.622;1.476;2022-07-18T06:52:49;17.43;;;5.37;;
15645;SDS011;7922;43.622;1.476;2022-07-18T06:55:15;7.90;;;3.90;;
15645;SDS011;7922;43.622;1.476;2022-07-18T06:57:41;14.37;;;4.47;;
15645;SDS011;7922;43.622;1.476;2022-07-18T07:00:08;6.70;;;3.73;;
15645;SDS011;7922;43.622;1.476;2022-07-18T07:02:39;9.37;;;3.70;;
15645;SDS011;7922;43.622;1.476;2022-07-18T07:05:06;9.23;;;4.00;;
15645;SDS011;7922;43.622;1.476;2022-07-18T07:07:32;5.83;;;3.73;;
15645;SDS011;7922;43.622;1.476;2022-07-18T07:09:57;6.87;;;3.70;;
15645;SDS011;7922;43.622;1.476;2022-07-18T07:12:23;9.10;;;4.13;;
15645;SDS011;7922;43.622;1.476;2022-07-18T07:14:49;3.83;;;3.50;;
15645;SDS011;7922;43.622;1.476;2022-07-18T07:17:14;6.87;;;4.00;;
15645;SDS011;7922;43.622;1.476;2022-07-18T07:19:40;4.80;;;3.33;;
15645;SDS011;7922;43.622;1.476;2022-07-18T07:22:05;6.63;;;4.23;;
15645;SDS011;7922;43.622;1.476;2022-07-18T07:24:31;5.97;;;3.57;;
15645;SDS011;7922;43.622;1.476;2022-07-18T07:26:57;8.37;;;3.60;;
15645;SDS011;7922;43.622;1.476;2022-07-18T07:29:22;6.23;;;3.73;;
15645;SDS011;7922;43.622;1.476;2022-07-18T07:31:48;7.70;;;3.63;;
15645;SDS011;7922;43.622;1.476;2022-07-18T07:34:14;9.73;;;3.90;;
15645;SDS011;7922;43.622;1.476;2022-07-18T07:36:40;7.30;;;4.20;;
15645;SDS011;7922;43.622;1.476;2022-07-18T07:39:06;7.87;;;3.87;;
15645;SDS011;7922;43.622;1.476;2022-07-18T07:41:32;8.50;;;4.17;;
15645;SDS011;7922;43.622;1.476;2022-07-18T07:43:58;9.40;;;3.80;;
15645;SDS011;7922;43.622;1.476;2022-07-18T07:46:24;6.90;;;3.80;;
15645;SDS011;7922;43.622;1.476;2022-07-18T07:48:49;9.47;;;4.43;;
15645;SDS011;7922;43.622;1.476;2022-07-18T07:51:15;8.03;;;4.40;;
15645;SDS011;7922;43.622;1.476;2022-07-18T07:53:41;8.38;;;3.88;;
15645;SDS011;7922;43.622;1.476;2022-07-18T07:56:07;4.38;;;3.53;;
15645;SDS011;7922;43.622;1.476;2022-07-18T07:58:33;7.57;;;3.80;;
15645;SDS011;7922;43.622;1.476;2022-07-18T08:00:58;4.18;;;3.80;;
15645;SDS011;7922;43.622;1.476;2022-07-18T08:03:24;4.97;;;3.75;;
15645;SDS011;7922;43.622;1.476;2022-07-18T08:05:50;5.07;;;3.80;;
15645;SDS011;7922;43.622;1.476;2022-07-18T08:08:16;4.95;;;3.63;;
15645;SDS011;7922;43.622;1.476;2022-07-18T08:10:43;3.80;;;3.40;;
15645;SDS011;7922;43.622;1.476;2022-07-18T08:13:11;5.45;;;3.35;;
15645;SDS011;7922;43.622;1.476;2022-07-18T08:15:37;5.90;;;4.05;;
15645;SDS011;7922;43.622;1.476;2022-07-18T08:18:03;4.22;;;3.90;;
15645;SDS011;7922;43.622;1.476;2022-07-18T08:20:29;8.45;;;3.83;;
15645;SDS011;7922;43.622;1.476;2022-07-18T08:23:00;7.78;;;4.10;;
15645;SDS011;7922;43.622;1.476;2022-07-18T08:25:28;4.40;;;4.00;;
15645;SDS011;7922;43.622;1.476;2022-07-18T08:27:54;4.15;;;3.78;;
15645;SDS011;7922;43.622;1.476;2022-07-18T08:30:20;4.20;;;3.80;;
15645;SDS011;7922;43.622;1.476;2022-07-18T08:32:46;3.90;;;3.60;;
15645;SDS011;7922;43.622;1.476;2022-07-18T08:35:12;5.15;;;3.80;;
15645;SDS011;7922;43.622;1.476;2022-07-18T08:37:38;3.90;;;3.60;;
15645;SDS011;7922;43.622;1.476;2022-07-18T08:40:05;6.60;;;3.50;;
15645;SDS011;7922;43.622;1.476;2022-07-18T08:42:32;4.38;;;3.55;;
15645;SDS011;7922;43.622;1.476;2022-07-18T08:44:58;4.50;;;3.83;;
15645;SDS011;7922;43.622;1.476;2022-07-18T08:47:26;4.93;;;4.22;;
15645;SDS011;7922;43.622;1.476;2022-07-18T08:49:54;4.93;;;3.60;;
15645;SDS011;7922;43.622;1.476;2022-07-18T08:52:20;7.43;;;3.35;;
15645;SDS011;7922;43.622;1.476;2022-07-18T08:54:46;5.30;;;3.03;;
15645;SDS011;7922;43.622;1.476;2022-07-18T08:57:15;6.97;;;3.20;;
15645;SDS011;7922;43.622;1.476;2022-07-18T08:59:41;9.68;;;3.65;;
15645;SDS011;7922;43.622;1.476;2022-07-18T09:02:07;4.40;;;3.03;;
15645;SDS011;7922;43.622;1.476;2022-07-18T09:04:37;3.95;;;3.45;;
15645;SDS011;7922;43.622;1.476;2022-07-18T09:07:04;4.90;;;3.33;;
15645;SDS011;7922;43.622;1.476;2022-07-18T09:09:33;4.70;;;3.15;;
15645;SDS011;7922;43.622;1.476;2022-07-18T09:12:07;3.50;;;3.20;;
15645;SDS011;7922;43.622;1.476;2022-07-18T09:14:37;4.43;;;2.90;;
15645;SDS011;7922;43.622;1.476;2022-07-18T09:17:06;3.38;;;3.00;;
15645;SDS011;7922;43.622;1.476;2022-07-18T09:19:34;3.78;;;3.30;;
15645;SDS011;7922;43.622;1.476;2022-07-18T09:22:20;5.90;;;3.30;;
15645;SDS011;7922;43.622;1.476;2022-07-18T09:30:08;5.53;;;2.80;;
15645;SDS011;7922;43.622;1.476;2022-07-18T09:32:36;4.95;;;3.20;;
15645;SDS011;7922;43.622;1.476;2022-07-18T09:37:36;5.97;;;3.50;;
15645;SDS011;7922;43.622;1.476;2022-07-18T09:40:14;4.80;;;3.30;;
15645;SDS011;7922;43.622;1.476;2022-07-18T09:42:54;3.22;;;2.70;;
15645;SDS011;7922;43.622;1.476;2022-07-18T09:45:26;4.35;;;2.72;;
15645;SDS011;7922;43.622;1.476;2022-07-18T09:47:55;5.50;;;2.65;;
15645;SDS011;7922;43.622;1.476;2022-07-18T09:50:27;5.93;;;3.00;;
15645;SDS011;7922;43.622;1.476;2022-07-18T09:52:57;5.28;;;3.00;;
15645;SDS011;7922;43.622;1.476;2022-07-18T09:55:23;4.47;;;3.20;;
15645;SDS011;7922;43.622;1.476;2022-07-18T09:57:59;4.95;;;2.63;;
15645;SDS011;7922;43.622;1.476;2022-07-18T10:00:27;3.20;;;3.00;;
15645;SDS011;7922;43.622;1.476;2022-07-18T10:02:55;3.08;;;2.80;;
15645;SDS011;7922;43.622;1.476;2022-07-18T10:05:24;3.58;;;2.70;;
15645;SDS011;7922;43.622;1.476;2022-07-18T10:07:51;5.72;;;3.20;;
15645;SDS011;7922;43.622;1.476;2022-07-18T10:10:18;3.92;;;2.83;;
15645;SDS011;7922;43.622;1.476;2022-07-18T10:12:43;8.98;;;3.13;;
15645;SDS011;7922;43.622;1.476;2022-07-18T10:15:09;5.55;;;2.75;;
15645;SDS011;7922;43.622;1.476;2022-07-18T10:17:35;3.08;;;2.78;;
15645;SDS011;7922;43.622;1.476;2022-07-18T10:20:04;5.05;;;3.17;;
15645;SDS011;7922;43.622;1.476;2022-07-18T10:22:41;3.10;;;2.90;;
15645;SDS011;7922;43.622;1.476;2022-07-18T10:25:08;4.82;;;3.30;;
15645;SDS011;7922;43.622;1.476;2022-07-18T10:30:17;4.78;;;2.90;;
15645;SDS011;7922;43.622;1.476;2022-07-18T10:32:55;4.13;;;3.10;;
15645;SDS011;7922;43.622;1.476;2022-07-18T10:35:57;3.28;;;2.83;;
15645;SDS011;7922;43.622;1.476;2022-07-18T10:39:02;3.38;;;2.88;;
15645;SDS011;7922;43.622;1.476;2022-07-18T10:42:19;3.28;;;2.97;;
15645;SDS011;7922;43.622;1.476;2022-07-18T10:47:04;3.65;;;2.78;;
15645;SDS011;7922;43.622;1.476;2022-07-18T10:57:40;3.58;;;3.05;;
15645;SDS011;7922;43.622;1.476;2022-07-18T11:00:14;7.75;;;3.42;;
15645;SDS011;7922;43.622;1.476;2022-07-18T11:02:41;4.38;;;3.35;;
15645;SDS011;7922;43.622;1.476;2022-07-18T11:23:44;5.50;;;2.78;;
15645;SDS011;7922;43.622;1.476;2022-07-18T11:26:14;6.47;;;3.50;;
15645;SDS011;7922;43.622;1.476;2022-07-18T11:28:41;2.90;;;2.70;;
15645;SDS011;7922;43.622;1.476;2022-07-18T11:31:08;3.15;;;2.92;;
15645;SDS011;7922;43.622;1.476;2022-07-18T11:33:39;3.75;;;3.10;;
15645;SDS011;7922;43.622;1.476;2022-07-18T11:36:08;5.25;;;3.22;;
15645;SDS011;7922;43.622;1.476;2022-07-18T11:38:36;6.15;;;2.85;;
15645;SDS011;7922;43.622;1.476;2022-07-18T11:41:12;4.28;;;3.03;;
15645;SDS011;7922;43.622;1.476;2022-07-18T11:43:38;4.07;;;2.95;;
15645;SDS011;7922;43.622;1.476;2022-07-18T11:46:08;3.42;;;3.03;;
15645;SDS011;7922;43.622;1.476;2022-07-18T11:48:36;4.82;;;3.15;;
15645;SDS011;7922;43.622;1.476;2022-07-18T11:51:08;3.72;;;3.17;;
15645;SDS011;7922;43.622;1.476;2022-07-18T11:53:34;3.13;;;2.92;;
15645;SDS011;7922;43.622;1.476;2022-07-18T11:56:04;3.30;;;3.00;;
15645;SDS011;7922;43.622;1.476;2022-07-18T11:58:35;3.42;;;3.13;;
15645;SDS011;7922;43.622;1.476;2022-07-18T12:01:02;3.75;;;2.75;;
15645;SDS011;7922;43.622;1.476;2022-07-18T12:03:28;3.47;;;2.78;;
15645;SDS011;7922;43.622;1.476;2022-07-18T12:05:54;2.90;;;2.67;;
15645;SDS011;7922;43.622;1.476;2022-07-18T12:08:24;3.60;;;3.30;;
15645;SDS011;7922;43.622;1.476;2022-07-18T12:13:53;3.10;;;2.90;;
15645;SDS011;7922;43.622;1.476;2022-07-18T12:17:06;4.75;;;3.17;;
15645;SDS011;7922;43.622;1.476;2022-07-18T12:19:10;3.30;;;2.75;;
15645;SDS011;7922;43.622;1.476;2022-07-18T12:21:49;3.78;;;3.17;;
15645;SDS011;7922;43.622;1.476;2022-07-18T12:32:49;4.70;;;3.10;;
15645;SDS011;7922;43.622;1.476;2022-07-18T12:35:32;3.60;;;3.30;;
15645;SDS011;7922;43.622;1.476;2022-07-18T12:45:56;5.47;;;2.92;;
15645;SDS011;7922;43.622;1.476;2022-07-18T12:48:24;5.25;;;3.33;;
15645;SDS011;7922;43.622;1.476;2022-07-18T12:50:56;3.88;;;3.40;;
15645;SDS011;7922;43.622;1.476;2022-07-18T12:53:26;3.30;;;3.00;;
15645;SDS011;7922;43.622;1.476;2022-07-18T12:55:53;4.50;;;3.20;;
15645;SDS011;7922;43.622;1.476;2022-07-18T12:58:19;3.60;;;3.30;;
15645;SDS011;7922;43.622;1.476;2022-07-18T13:00:46;5.47;;;3.22;;
15645;SDS011;7922;43.622;1.476;2022-07-18T13:03:12;3.75;;;3.10;;
15645;SDS011;7922;43.622;1.476;2022-07-18T13:05:38;3.47;;;3.13;;
15645;SDS011;7922;43.622;1.476;2022-07-18T13:08:04;3.00;;;2.80;;
15645;SDS011;7922;43.622;1.476;2022-07-18T13:10:31;4.05;;;3.10;;
15645;SDS011;7922;43.622;1.476;2022-07-18T13:12:57;4.10;;;2.88;;
15645;SDS011;7922;43.622;1.476;2022-07-18T13:15:25;5.40;;;2.97;;
15645;SDS011;7922;43.622;1.476;2022-07-18T13:17:51;6.28;;;3.38;;
15645;SDS011;7922;43.622;1.476;2022-07-18T13:20:17;3.03;;;2.83;;
15645;SDS011;7922;43.622;1.476;2022-07-18T13:22:43;3.33;;;3.13;;
15645;SDS011;7922;43.622;1.476;2022-07-18T13:25:09;3.40;;;3.10;;
15645;SDS011;7922;43.622;1.476;2022-07-18T13:27:35;3.10;;;2.90;;
15645;SDS011;7922;43.622;1.476;2022-07-18T13:30:03;6.07;;;3.20;;
15645;SDS011;7922;43.622;1.476;2022-07-18T13:32:30;3.20;;;2.90;;
15645;SDS011;7922;43.622;1.476;2022-07-18T13:34:56;5.53;;;3.35;;
15645;SDS011;7922;43.622;1.476;2022-07-18T13:37:22;5.60;;;3.50;;
15645;SDS011;7922;43.622;1.476;2022-07-18T13:39:48;3.88;;;3.25;;
15645;SDS011;7922;43.622;1.476;2022-07-18T13:42:14;5.13;;;3.00;;
15645;SDS011;7922;43.622;1.476;2022-07-18T13:44:40;5.53;;;3.08;;
15645;SDS011;7922;43.622;1.476;2022-07-18T13:47:06;4.32;;;2.60;;
15645;SDS011;7922;43.622;1.476;2022-07-18T13:49:32;3.45;;;3.15;;
15645;SDS011;7922;43.622;1.476;2022-07-18T13:51:58;3.63;;;2.60;;
15645;SDS011;7922;43.622;1.476;2022-07-18T13:54:23;3.47;;;3.17;;
15645;SDS011;7922;43.622;1.476;2022-07-18T13:56:49;4.00;;;2.65;;
15645;SDS011;7922;43.622;1.476;2022-07-18T13:59:15;3.22;;;2.90;;
15645;SDS011;7922;43.622;1.476;2022-07-18T14:01:41;2.95;;;2.75;;
15645;SDS011;7922;43.622;1.476;2022-07-18T14:04:07;3.90;;;2.75;;
15645;SDS011;7922;43.622;1.476;2022-07-18T14:06:33;2.80;;;2.60;;
15645;SDS011;7922;43.622;1.476;2022-07-18T14:09:00;3.40;;;2.40;;
15645;SDS011;7922;43.622;1.476;2022-07-18T14:11:29;2.95;;;2.35;;
15645;SDS011;7922;43.622;1.476;2022-07-18T14:13:57;3.50;;;2.50;;
15645;SDS011;7922;43.622;1.476;2022-07-18T14:16:26;3.05;;;2.83;;
15645;SDS011;7922;43.622;1.476;2022-07-18T14:18:52;3.45;;;2.67;;
15645;SDS011;7922;43.622;1.476;2022-07-18T14:21:18;2.50;;;2.30;;
15645;SDS011;7922;43.622;1.476;2022-07-18T14:23:44;3.38;;;2.38;;
15645;SDS011;7922;43.622;1.476;2022-07-18T14:26:09;2.72;;;2.30;;
15645;SDS011;7922;43.622;1.476;2022-07-18T14:28:35;2.65;;;2.42;;
15645;SDS011;7922;43.622;1.476;2022-07-18T14:31:01;4.03;;;2.33;;
15645;SDS011;7922;43.622;1.476;2022-07-18T14:33:27;2.67;;;2.22;;
15645;SDS011;7922;43.622;1.476;2022-07-18T14:35:52;3.88;;;2.30;;
15645;SDS011;7922;43.622;1.476;2022-07-18T14:38:18;3.40;;;2.50;;
15645;SDS011;7922;43.622;1.476;2022-07-18T14:40:44;2.83;;;2.63;;
15645;SDS011;7922;43.622;1.476;2022-07-18T14:43:10;4.05;;;2.88;;
15645;SDS011;7922;43.622;1.476;2022-07-18T14:45:35;4.28;;;2.83;;
15645;SDS011;7922;43.622;1.476;2022-07-18T14:48:01;2.85;;;2.58;;
15645;SDS011;7922;43.622;1.476;2022-07-18T14:50:27;3.30;;;2.75;;
15645;SDS011;7922;43.622;1.476;2022-07-18T14:52:52;2.97;;;2.78;;
15645;SDS011;7922;43.622;1.476;2022-07-18T14:55:18;5.25;;;2.97;;
15645;SDS011;7922;43.622;1.476;2022-07-18T14:57:44;3.00;;;2.80;;
15645;SDS011;7922;43.622;1.476;2022-07-18T15:00:10;2.70;;;2.50;;
15645;SDS011;7922;43.622;1.476;2022-07-18T15:02:36;3.78;;;2.38;;
15645;SDS011;7922;43.622;1.476;2022-07-18T15:05:03;2.70;;;2.50;;
15645;SDS011;7922;43.622;1.476;2022-07-18T15:07:31;3.95;;;2.90;;
15645;SDS011;7922;43.622;1.476;2022-07-18T15:09:57;4.72;;;2.97;;
15645;SDS011;7922;43.622;1.476;2022-07-18T15:12:22;3.50;;;3.00;;
15645;SDS011;7922;43.622;1.476;2022-07-18T15:14:48;2.67;;;2.47;;
15645;SDS011;7922;43.622;1.476;2022-07-18T15:17:14;3.53;;;2.47;;
15645;SDS011;7922;43.622;1.476;2022-07-18T15:19:40;3.20;;;2.92;;
15645;SDS011;7922;43.622;1.476;2022-07-18T15:22:05;3.03;;;2.83;;
15645;SDS011;7922;43.622;1.476;2022-07-18T15:24:32;3.00;;;2.70;;
15645;SDS011;7922;43.622;1.476;2022-07-18T15:26:58;3.00;;;2.70;;
15645;SDS011;7922;43.622;1.476;2022-07-18T15:29:24;3.15;;;2.95;;
15645;SDS011;7922;43.622;1.476;2022-07-18T15:31:49;6.13;;;3.10;;
15645;SDS011;7922;43.622;1.476;2022-07-18T15:34:15;3.42;;;3.00;;
15645;SDS011;7922;43.622;1.476;2022-07-18T15:36:41;4.10;;;2.55;;
15645;SDS011;7922;43.622;1.476;2022-07-18T15:39:06;3.22;;;2.92;;
15645;SDS011;7922;43.622;1.476;2022-07-18T15:41:32;3.17;;;2.97;;
15645;SDS011;7922;43.622;1.476;2022-07-18T15:43:58;4.60;;;3.28;;
15645;SDS011;7922;43.622;1.476;2022-07-18T15:46:23;3.70;;;3.40;;
15645;SDS011;7922;43.622;1.476;2022-07-18T15:48:49;4.13;;;3.83;;
15645;SDS011;7922;43.622;1.476;2022-07-18T15:51:16;4.35;;;3.42;;
15645;SDS011;7922;43.622;1.476;2022-07-18T15:53:41;5.93;;;3.92;;
15645;SDS011;7922;43.622;1.476;2022-07-18T15:56:07;3.60;;;3.30;;
15645;SDS011;7922;43.622;1.476;2022-07-18T15:58:33;4.25;;;3.30;;